createdAt,value
2022-10-03T06:36:10.693Z,12.63
2022-10-03T06:39:29.848Z,12.80
2022-10-03T06:42:23.636Z,12.58
2022-10-03T06:45:32.084Z,12.83
2022-10-03T06:48:27.987Z,12.86
2022-10-03T06:51:20.031Z,12.84
2022-10-03T06:54:15.433Z,12.93
2022-10-03T06:57:06.818Z,12.99
2022-10-03T07:00:01.646Z,13.18
2022-10-03T07:03:02.999Z,13.31
2022-10-03T07:06:05.256Z,13.38
2022-10-03T07:09:04.596Z,13.47
2022-10-03T07:11:55.888Z,13.50
2022-10-03T07:14:58.242Z,13.46
2022-10-03T07:17:53.488Z,13.35
2022-10-03T07:20:49.553Z,13.41
2022-10-03T07:24:04.711Z,13.47
2022-10-03T07:27:02.119Z,13.38
2022-10-03T07:29:59.371Z,13.25
2022-10-03T07:32:56.946Z,13.62
2022-10-03T07:36:05.662Z,13.65
2022-10-03T07:39:01.454Z,13.71
2022-10-03T07:42:00.835Z,13.74
2022-10-03T07:45:11.014Z,13.72
2022-10-03T07:48:08.047Z,13.87
2022-10-03T07:50:53.222Z,14.00
2022-10-03T07:53:43.799Z,13.75
2022-10-03T07:56:35.787Z,13.92
2022-10-03T07:59:23.156Z,14.00
2022-10-03T08:02:11.614Z,13.93
2022-10-03T08:05:06.794Z,14.06
2022-10-03T08:07:59.932Z,14.06
2022-10-03T08:11:04.542Z,14.28
2022-10-03T08:13:49.007Z,14.32
2022-10-03T08:16:49.420Z,14.41
2022-10-03T08:19:35.272Z,14.28
2022-10-03T08:22:13.945Z,14.38
2022-10-03T08:25:13.199Z,14.41
2022-10-03T08:28:07.054Z,14.57
2022-10-03T08:30:56.626Z,14.60
2022-10-03T08:33:49.927Z,14.38
2022-10-03T08:36:49.760Z,14.78
2022-10-03T08:39:43.809Z,14.82
2022-10-03T08:42:39.202Z,14.91
2022-10-03T08:45:39.627Z,14.93
2022-10-03T08:48:42.557Z,15.03
2022-10-03T08:51:48.177Z,15.15
2022-10-03T08:54:44.436Z,15.32
2022-10-03T08:57:28.963Z,15.48
2022-10-03T09:00:17.306Z,15.49
2022-10-03T09:03:33.544Z,15.60
2022-10-03T09:06:52.781Z,15.65
2022-10-03T09:09:59.231Z,15.52
2022-10-03T09:13:10.382Z,15.85
2022-10-03T09:16:18.436Z,15.71
2022-10-03T09:19:07.931Z,15.82
2022-10-03T09:22:09.637Z,15.88
2022-10-03T09:25:13.400Z,15.94
2022-10-03T09:28:02.095Z,16.17
2022-10-03T09:30:54.342Z,16.28
2022-10-03T09:33:58.072Z,16.37
2022-10-03T09:37:07.065Z,16.47
2022-10-03T09:40:09.257Z,16.69
2022-10-03T09:43:21.325Z,16.86
2022-10-03T09:46:14.532Z,17.00
2022-10-03T09:49:13.550Z,16.88
2022-10-03T09:51:57.922Z,17.10
2022-10-03T09:55:01.641Z,17.10
2022-10-03T09:57:57.097Z,16.99
2022-10-03T10:00:31.366Z,17.01
2022-10-03T10:03:44.152Z,17.01
2022-10-03T10:06:42.193Z,17.14
2022-10-03T10:09:51.444Z,17.32
2022-10-03T10:13:02.851Z,17.09
2022-10-03T10:15:54.733Z,17.31
2022-10-03T10:18:50.708Z,17.48
2022-10-03T10:21:47.257Z,17.23
2022-10-03T10:25:13.587Z,17.10
2022-10-03T10:28:22.135Z,17.02
2022-10-03T10:31:24.205Z,17.13
2022-10-03T10:34:34.589Z,17.26
2022-10-03T10:37:36.332Z,17.17
2022-10-03T10:40:33.289Z,17.11
2022-10-03T10:43:39.763Z,17.03
2022-10-03T10:46:43.579Z,16.89
2022-10-03T10:49:43.403Z,17.15
2022-10-03T10:52:45.581Z,17.06
2022-10-03T10:55:51.137Z,17.43
2022-10-03T10:58:58.222Z,17.50
2022-10-03T11:02:13.131Z,17.50
2022-10-03T11:05:14.226Z,17.60
2022-10-03T11:08:20.188Z,17.80
2022-10-03T11:11:10.043Z,17.99
2022-10-03T11:14:09.976Z,18.00
2022-10-03T11:17:09.419Z,18.16
2022-10-03T11:20:15.154Z,17.97
2022-10-03T11:23:31.576Z,18.08
2022-10-03T11:26:40.686Z,18.04
2022-10-03T11:29:41.058Z,18.09
2022-10-03T11:33:04.363Z,17.98
2022-10-03T11:36:00.243Z,17.75
2022-10-03T11:38:38.001Z,17.68
2022-10-03T11:41:24.198Z,17.71
2022-10-03T11:44:27.445Z,17.98
2022-10-03T11:47:22.852Z,18.07
2022-10-03T11:50:21.655Z,18.21
2022-10-03T11:53:17.703Z,18.13
2022-10-03T11:56:02.342Z,18.35
2022-10-03T11:58:55.823Z,18.42
2022-10-03T12:01:36.726Z,18.46
2022-10-03T12:04:19.492Z,18.56
2022-10-03T12:07:19.918Z,18.42
2022-10-03T12:10:04.046Z,18.25
2022-10-03T12:12:43.842Z,18.28
2022-10-03T12:15:27.864Z,18.22
2022-10-03T12:18:08.648Z,18.33
2022-10-03T12:21:00.001Z,18.34
2022-10-03T12:23:46.872Z,18.42
2022-10-03T12:26:23.541Z,18.34
2022-10-03T12:28:59.856Z,18.51
2022-10-03T12:31:35.882Z,18.36
2022-10-03T12:34:32.359Z,18.54
2022-10-03T12:37:22.501Z,18.41
2022-10-03T12:40:06.116Z,18.51
2022-10-03T12:42:43.818Z,18.39
2022-10-03T12:45:27.700Z,18.25
2022-10-03T12:48:10.771Z,18.36
2022-10-03T12:50:46.363Z,18.23
2022-10-03T12:53:31.127Z,18.34
2022-10-03T12:56:10.151Z,18.40
2022-10-03T12:58:53.265Z,18.46
2022-10-03T13:01:39.625Z,18.51
2022-10-03T13:04:23.545Z,18.59
2022-10-03T13:07:08.510Z,18.56
2022-10-03T13:10:02.369Z,18.69
2022-10-03T13:12:49.334Z,18.66
2022-10-03T13:15:44.389Z,18.89
2022-10-03T13:18:52.934Z,18.99
2022-10-03T13:24:32.172Z,19.10
2022-10-03T13:27:13.788Z,19.11
2022-10-03T13:29:49.928Z,19.19
2022-10-03T13:32:27.722Z,19.02
2022-10-03T13:35:27.891Z,19.18
2022-10-03T13:38:17.047Z,19.02
2022-10-03T13:40:59.109Z,19.02
2022-10-03T13:43:37.704Z,19.12
2022-10-03T13:46:16.398Z,19.03
2022-10-03T13:48:50.106Z,18.97
2022-10-03T13:51:34.709Z,19.09
2022-10-03T13:54:10.057Z,19.18
2022-10-03T13:56:48.645Z,19.30
2022-10-03T13:59:38.337Z,19.18
2022-10-03T14:02:27.704Z,19.21
2022-10-03T14:05:40.020Z,19.21
2022-10-03T14:08:20.118Z,19.13
2022-10-03T14:11:19.359Z,19.09
2022-10-03T14:14:14.814Z,18.99
2022-10-03T14:16:50.139Z,18.97
2022-10-03T14:19:35.268Z,19.06
2022-10-03T14:22:18.831Z,19.08
2022-10-03T14:25:03.732Z,19.01
2022-10-03T14:27:50.518Z,19.09
2022-10-03T14:30:24.474Z,19.25
2022-10-03T14:33:10.731Z,19.36
2022-10-03T14:35:48.526Z,19.30
2022-10-03T14:38:52.463Z,19.33
2022-10-03T14:41:41.782Z,19.17
2022-10-03T14:44:16.227Z,19.09
2022-10-03T14:46:53.147Z,18.79
2022-10-03T14:49:53.576Z,18.70
2022-10-03T14:52:30.931Z,18.64
2022-10-03T14:55:11.447Z,18.54
2022-10-03T14:58:09.153Z,18.41
2022-10-03T15:00:45.318Z,18.50
2022-10-03T15:03:26.612Z,18.58
2022-10-03T15:06:04.451Z,18.54
2022-10-03T15:08:40.598Z,18.39
2022-10-03T15:11:12.930Z,18.37
2022-10-03T15:13:54.656Z,18.28
2022-10-03T15:16:27.172Z,18.38
2022-10-03T15:19:07.139Z,18.38
2022-10-03T15:21:39.483Z,18.29
2022-10-03T15:24:14.988Z,18.22
2022-10-03T15:26:52.895Z,18.28
2022-10-03T15:29:27.091Z,18.24
2022-10-03T15:31:58.565Z,18.05
2022-10-03T15:34:34.001Z,18.11
2022-10-03T15:37:15.798Z,19.07
2022-10-03T15:39:52.749Z,18.51
2022-10-03T15:42:26.300Z,18.13
2022-10-03T15:45:03.907Z,18.09
2022-10-03T15:47:40.129Z,18.10
2022-10-03T15:50:22.446Z,18.05
2022-10-03T15:53:08.181Z,17.93
2022-10-03T15:55:53.610Z,17.92
2022-10-03T15:58:33.181Z,17.84
2022-10-03T16:01:12.158Z,17.83
2022-10-03T16:03:47.714Z,17.80
2022-10-03T16:06:23.891Z,17.48
2022-10-03T16:09:08.021Z,17.47
2022-10-03T16:11:49.935Z,17.68
2022-10-03T16:14:25.757Z,17.39
2022-10-03T16:17:02.770Z,17.56
2022-10-03T16:19:35.999Z,17.45
2022-10-03T16:22:20.232Z,17.53
2022-10-03T16:25:04.732Z,17.45
2022-10-03T16:27:37.674Z,17.39
2022-10-03T16:30:21.639Z,18.53
2022-10-03T16:33:04.374Z,17.76
2022-10-03T16:35:41.363Z,17.46
2022-10-03T16:38:22.332Z,17.31
2022-10-03T16:40:58.656Z,17.23
2022-10-03T16:43:32.932Z,17.04
2022-10-03T16:46:07.475Z,17.07
2022-10-03T16:48:56.907Z,17.00
2022-10-03T16:51:37.495Z,16.87
2022-10-03T16:54:13.889Z,16.87
2022-10-03T16:56:48.930Z,16.82
2022-10-03T16:59:22.801Z,16.71
2022-10-03T17:01:55.648Z,16.72
2022-10-03T17:04:33.491Z,16.73
2022-10-03T17:07:08.689Z,16.65
2022-10-03T17:09:46.124Z,16.50
2022-10-03T17:12:21.358Z,16.39
2022-10-03T17:14:51.590Z,16.36
2022-10-03T17:17:33.027Z,16.20
2022-10-03T17:20:10.782Z,16.18
2022-10-03T17:22:44.947Z,16.13
2022-10-03T17:25:39.811Z,15.97
2022-10-03T17:28:17.728Z,15.96
2022-10-03T17:30:54.525Z,15.79
2022-10-03T17:33:38.225Z,15.79
2022-10-03T17:36:37.678Z,15.82
2022-10-03T17:39:16.924Z,15.78
2022-10-03T17:41:55.829Z,15.74
2022-10-03T17:44:36.608Z,15.70
2022-10-03T17:47:14.131Z,15.62
2022-10-03T17:49:52.302Z,15.54
2022-10-03T17:52:26.281Z,15.48
2022-10-03T17:55:02.179Z,15.39
2022-10-03T17:57:38.592Z,15.38
2022-10-03T18:00:19.315Z,15.36
2022-10-03T18:02:59.237Z,15.25
2022-10-03T18:05:35.473Z,15.23
2022-10-03T18:08:10.652Z,15.29
2022-10-03T18:10:49.331Z,15.17
2022-10-03T18:13:26.764Z,15.21
2022-10-03T18:16:12.577Z,15.11
2022-10-03T18:18:58.264Z,15.08
2022-10-03T18:21:39.662Z,15.14
2022-10-03T18:24:37.413Z,14.95
2022-10-03T18:27:51.681Z,14.99
2022-10-03T18:30:32.307Z,14.89
2022-10-03T18:33:06.497Z,14.91
2022-10-03T18:35:41.723Z,14.91
2022-10-03T18:38:20.807Z,14.85
2022-10-03T18:41:01.705Z,14.80
2022-10-03T18:43:45.062Z,14.79
2022-10-03T18:46:20.130Z,14.76
2022-10-03T18:49:32.962Z,14.65
2022-10-03T18:51:58.090Z,14.77
2022-10-03T18:54:41.647Z,14.73
2022-10-03T18:57:24.745Z,14.64
2022-10-03T18:59:59.538Z,14.24
2022-10-03T19:02:38.478Z,14.29
2022-10-03T19:05:17.180Z,14.33
2022-10-03T19:07:52.051Z,14.26
2022-10-03T19:10:42.218Z,14.11
2022-10-03T19:13:30.361Z,14.00
2022-10-03T19:16:21.737Z,13.68
2022-10-03T19:19:05.090Z,13.91
2022-10-03T19:21:41.195Z,13.61
2022-10-03T19:24:17.594Z,13.82
2022-10-03T19:26:52.315Z,13.96
2022-10-03T19:29:32.341Z,13.91
2022-10-03T19:32:18.155Z,14.01
2022-10-03T19:34:49.961Z,13.89
2022-10-03T19:37:34.128Z,14.01
2022-10-03T19:40:16.232Z,13.88
2022-10-03T19:42:52.280Z,13.79
2022-10-03T19:45:25.968Z,13.63
2022-10-03T19:48:02.054Z,13.73
2022-10-03T19:50:35.376Z,13.67
2022-10-03T19:53:15.019Z,13.72
2022-10-03T19:55:47.416Z,13.79
2022-10-03T19:58:26.696Z,13.75
2022-10-03T20:01:08.899Z,13.74
2022-10-03T20:03:42.450Z,13.63
2022-10-03T20:06:39.754Z,13.65
2022-10-03T20:09:23.129Z,13.68
2022-10-03T20:11:58.993Z,13.64
2022-10-03T20:14:37.514Z,13.63
2022-10-03T20:17:16.178Z,13.52
2022-10-03T20:19:54.778Z,13.48
2022-10-03T20:22:27.857Z,13.57
2022-10-03T20:24:58.695Z,13.51
2022-10-03T20:27:39.586Z,13.48
2022-10-03T20:30:26.903Z,13.49
2022-10-03T20:33:01.334Z,13.47
2022-10-03T20:35:36.926Z,13.37
2022-10-03T20:38:16.265Z,13.48
2022-10-03T20:40:53.917Z,13.49
2022-10-03T20:43:44.884Z,13.43
2022-10-03T20:46:24.915Z,13.35
2022-10-03T20:49:12.790Z,13.31
2022-10-03T20:51:45.914Z,13.31
2022-10-03T20:54:17.599Z,13.28
2022-10-03T20:56:58.242Z,13.28
2022-10-03T20:59:38.239Z,13.25
2022-10-03T21:02:17.997Z,13.22
2022-10-03T21:04:56.308Z,14.44
2022-10-03T21:07:34.999Z,13.83
2022-10-03T21:10:19.144Z,13.28
2022-10-03T21:12:52.087Z,13.40
2022-10-03T21:15:36.249Z,13.19
2022-10-03T21:18:08.779Z,13.09
2022-10-03T21:20:43.120Z,13.05
2022-10-03T21:23:20.082Z,13.09
2022-10-03T21:25:53.852Z,12.96
2022-10-03T21:28:29.404Z,12.88
2022-10-03T21:31:32.487Z,12.97
2022-10-03T21:34:09.714Z,12.80
2022-10-03T21:36:54.080Z,12.89
2022-10-03T21:39:36.318Z,12.56
2022-10-03T21:42:18.583Z,12.87
2022-10-03T21:45:04.452Z,12.75
2022-10-03T21:47:42.847Z,12.87
2022-10-03T21:50:20.732Z,12.85
2022-10-03T21:53:05.935Z,12.77
2022-10-03T21:55:53.365Z,12.62
2022-10-03T21:58:37.023Z,12.83
2022-10-03T22:01:16.030Z,12.88
2022-10-03T22:03:54.295Z,12.85
2022-10-03T22:06:27.867Z,12.92
2022-10-03T22:09:04.928Z,12.51
2022-10-03T22:11:45.497Z,12.50
2022-10-03T22:14:28.527Z,12.56
2022-10-03T22:17:08.192Z,12.80
2022-10-03T22:19:41.829Z,12.69
2022-10-03T22:22:22.322Z,12.75
2022-10-03T22:25:18.610Z,12.50
2022-10-03T22:27:54.740Z,12.64
2022-10-03T22:30:25.259Z,12.34
2022-10-03T22:33:09.882Z,12.62
2022-10-03T22:35:51.075Z,12.56
2022-10-03T22:38:29.094Z,12.47
2022-10-03T22:41:06.081Z,12.56
2022-10-03T22:43:38.566Z,12.55
2022-10-03T22:46:11.493Z,12.51
2022-10-03T22:48:49.805Z,12.36
2022-10-03T22:51:23.898Z,12.41
2022-10-03T22:53:58.803Z,12.37
2022-10-03T22:56:45.498Z,12.19
2022-10-03T22:59:21.257Z,12.49
2022-10-03T23:01:54.935Z,12.35
2022-10-03T23:04:33.465Z,12.45
2022-10-03T23:07:27.243Z,12.42
2022-10-03T23:10:09.237Z,12.35
2022-10-03T23:12:45.004Z,12.30
2022-10-03T23:15:20.473Z,12.21
2022-10-03T23:18:06.132Z,12.31
2022-10-03T23:21:10.026Z,12.23
2022-10-03T23:23:52.951Z,12.14
2022-10-03T23:26:52.837Z,12.11
2022-10-03T23:29:27.259Z,12.13
2022-10-03T23:32:00.597Z,12.14
2022-10-03T23:34:47.320Z,12.06
2022-10-03T23:37:41.123Z,12.04
2022-10-03T23:40:30.394Z,12.01
2022-10-03T23:43:08.114Z,11.64
2022-10-03T23:45:40.571Z,12.04
2022-10-03T23:48:14.293Z,12.01
2022-10-03T23:50:49.020Z,12.07
2022-10-03T23:53:27.523Z,12.14
2022-10-03T23:55:57.937Z,12.09
2022-10-03T23:58:30.700Z,12.10
